Time;durP1;ratioP1;P1;durP2;ratioP2;P2;SDS_P1;SDS_P2;PMS_P1;PMS_P2;Temp;Humidity;BMP_temperature;BMP_pressure;BME280_temperature;BME280_humidity;BME280_pressure;Samples;Min_cycle;Max_cycle;Signal;HPM_P1;HPM_P2
2020/12/01 00:45:34;;;;;;;17.17;12.02;;;;;;;6.37;76.58;99309.09;5038122;28;20120;-88
2020/12/01 00:48:00;;;;;;;21.40;14.05;;;;;;;6.37;76.64;99303.88;5022793;28;20077;-89
2020/12/01 00:50:27;;;;;;;21.17;13.68;;;;;;;6.39;76.59;99307.25;5022491;28;20107;-91
2020/12/01 00:53:09;;;;;;;21.80;13.95;;;;;;;6.39;76.82;99314.25;5043152;28;20055;-89
2020/12/01 00:55:44;;;;;;;17.95;12.40;;;;;;;6.42;76.85;99298.41;5042499;28;20464;-89
2020/12/01 00:58:14;;;;;;;20.60;13.45;;;;;;;6.44;76.61;99300.97;5044925;28;20075;-90
2020/12/01 01:01:02;;;;;;;20.90;13.63;;;;;;;6.47;76.84;99292.97;5044330;28;20045;-88
2020/12/01 01:03:42;;;;;;;15.93;12.15;;;;;;;6.47;76.94;99296.44;5041683;28;20053;-89
2020/12/01 01:06:25;;;;;;;18.83;12.88;;;;;;;6.50;76.96;99296.28;5045734;28;20105;-88
2020/12/01 01:08:55;;;;;;;15.68;12.00;;;;;;;6.55;76.82;99290.84;5039582;28;20576;-89
2020/12/01 01:11:46;;;;;;;16.08;11.13;;;;;;;6.54;76.94;99299.59;5041450;28;20064;-90
2020/12/01 01:14:12;;;;;;;16.38;10.82;;;;;;;6.59;76.32;99289.78;5043119;28;20136;-88
2020/12/01 01:16:45;;;;;;;12.75;10.13;;;;;;;6.62;76.37;99289.63;5042451;28;20060;-88
2020/12/01 01:19:14;;;;;;;12.32;8.95;;;;;;;6.63;76.64;99299.19;5039191;28;20052;-89
2020/12/01 01:21:49;;;;;;;14.18;10.05;;;;;;;6.65;76.47;99297.31;5040091;28;20079;-88
2020/12/01 01:24:26;;;;;;;14.55;11.02;;;;;;;6.67;76.35;99294.63;5043156;28;20049;-88
2020/12/01 01:27:11;;;;;;;15.38;10.43;;;;;;;6.66;76.47;99303.41;5039718;28;20144;-89
2020/12/01 01:29:47;;;;;;;13.27;9.90;;;;;;;6.72;76.48;99302.25;5042825;28;20095;-88
2020/12/01 01:32:15;;;;;;;13.75;9.60;;;;;;;6.71;76.43;99298.81;5039026;28;20049;-88
2020/12/01 01:34:41;;;;;;;14.07;9.93;;;;;;;6.72;76.67;99297.88;5038338;28;20473;-88
2020/12/01 01:37:13;;;;;;;13.98;9.65;;;;;;;6.74;76.54;99296.03;5039061;28;20056;-88
2020/12/01 01:39:39;;;;;;;14.77;10.10;;;;;;;6.75;76.67;99294.25;5037986;28;20095;-88
2020/12/01 01:42:07;;;;;;;14.25;9.38;;;;;;;6.77;76.44;99300.28;5037818;28;20059;-88
2020/12/01 01:44:39;;;;;;;10.73;7.93;;;;;;;6.78;76.66;99297.56;5038363;28;20082;-89
2020/12/01 01:47:20;;;;;;;11.32;7.78;;;;;;;6.77;76.87;99301.09;5039908;28;20060;-88
2020/12/01 01:49:58;;;;;;;11.52;8.43;;;;;;;6.81;76.49;99306.19;5038891;28;20453;-88
2020/12/01 01:52:33;;;;;;;10.55;7.63;;;;;;;6.83;76.80;99299.09;5038235;28;20140;-87
2020/12/01 01:55:34;;;;;;;11.45;8.25;;;;;;;6.82;76.80;99297.41;5037915;28;20116;-88
2020/12/01 01:58:17;;;;;;;13.52;9.50;;;;;;;6.87;76.58;99301.50;5056446;28;20049;-88
2020/12/01 02:00:58;;;;;;;11.52;8.65;;;;;;;6.87;76.51;99288.44;5037535;28;20485;-88
2020/12/01 02:03:35;;;;;;;9.30;7.50;;;;;;;6.88;76.62;99286.69;5056130;28;20067;-87
2020/12/01 02:06:23;;;;;;;11.38;8.70;;;;;;;6.89;76.74;99294.41;5038789;28;20132;-88
2020/12/01 02:08:57;;;;;;;11.68;8.85;;;;;;;6.91;76.95;99289.13;5037764;28;20067;-88
2020/12/01 02:11:29;;;;;;;13.70;9.48;;;;;;;6.92;76.92;99290.84;5056329;28;20060;-89
2020/12/01 02:14:09;;;;;;;13.50;9.07;;;;;;;6.95;76.65;99284.59;5038203;28;20052;-87
2020/12/01 02:16:49;;;;;;;11.90;9.00;;;;;;;6.94;76.60;99280.25;5038392;28;20053;-90
2020/12/01 02:19:26;;;;;;;13.80;9.25;;;;;;;6.97;76.99;99280.13;5037914;28;20413;-87
2020/12/01 02:21:55;;;;;;;14.93;10.18;;;;;;;7.00;77.31;99274.75;5038186;28;20045;-87
2020/12/01 02:24:24;;;;;;;25.25;9.85;;;;;;;7.04;76.94;99276.28;5037457;28;20409;-88
2020/12/01 02:26:57;;;;;;;23.25;10.43;;;;;;;7.06;77.28;99277.03;5038079;28;20057;-87
2020/12/01 02:29:30;;;;;;;28.35;10.13;;;;;;;7.09;76.89;99279.50;5037949;28;20053;-87
2020/12/01 02:31:58;;;;;;;50.85;11.93;;;;;;;7.12;76.88;99279.38;5037287;28;20083;-88
2020/12/01 02:34:37;;;;;;;47.95;11.73;;;;;;;7.11;76.64;99282.06;5036909;28;20144;-87
2020/12/01 02:37:04;;;;;;;53.45;10.63;;;;;;;7.15;76.84;99283.59;5037452;28;20492;-88
2020/12/01 02:39:33;;;;;;;63.72;12.10;;;;;;;7.18;76.81;99283.44;5036690;28;20049;-88
2020/12/01 02:42:11;;;;;;;41.58;10.70;;;;;;;7.16;77.18;99280.91;5036802;28;20060;-88
2020/12/01 02:44:38;;;;;;;20.48;9.90;;;;;;;7.22;76.82;99289.38;5036821;28;20127;-87
2020/12/01 02:47:05;;;;;;;15.60;10.35;;;;;;;7.24;77.11;99285.75;5054876;28;20053;-87
2020/12/01 02:49:34;;;;;;;15.55;10.70;;;;;;;7.26;77.15;99280.44;5037630;28;20049;-87
2020/12/01 02:52:03;;;;;;;17.20;11.05;;;;;;;7.28;77.24;99291.66;5037587;28;20072;-88
2020/12/01 02:54:30;;;;;;;15.25;10.93;;;;;;;7.32;77.17;99279.28;5036789;28;20135;-87
2020/12/01 02:57:09;;;;;;;16.67;10.30;;;;;;;7.32;77.29;99280.09;5039111;28;20057;-87
2020/12/01 03:00:01;;;;;;;12.77;9.90;;;;;;;7.37;77.33;99283.31;5038190;28;20053;-89
2020/12/01 03:02:35;;;;;;;13.02;9.93;;;;;;;7.40;77.19;99279.72;5038624;28;20410;-88
2020/12/01 03:05:04;;;;;;;11.82;8.52;;;;;;;7.43;77.61;99271.69;5029117;28;20068;-87
2020/12/01 03:07:31;;;;;;;10.20;8.30;;;;;;;7.47;77.28;99282.88;5036336;28;20478;-87
2020/12/01 03:09:57;;;;;;;10.98;9.02;;;;;;;7.49;77.36;99281.00;5036455;28;20053;-87
2020/12/01 03:12:23;;;;;;;11.80;9.00;;;;;;;7.52;77.67;99280.88;5036824;28;20052;-87
2020/12/01 03:14:49;;;;;;;17.92;10.27;;;;;;;7.54;77.42;99282.47;5037408;28;20446;-86
2020/12/01 03:17:17;;;;;;;15.13;10.25;;;;;;;7.58;77.45;99282.31;5037059;28;20091;-88
2020/12/01 03:19:44;;;;;;;15.90;11.30;;;;;;;7.59;77.18;99284.84;5036032;28;20049;-87
2020/12/01 03:22:10;;;;;;;20.60;10.50;;;;;;;7.61;77.14;99274.28;5036270;28;20079;-87
2020/12/01 03:24:37;;;;;;;18.40;10.93;;;;;;;7.63;77.18;99289.00;5036830;28;20053;-88
2020/12/01 03:27:16;;;;;;;16.10;10.93;;;;;;;7.64;77.27;99288.09;5037801;28;20057;-88
2020/12/01 03:29:49;;;;;;;15.63;10.77;;;;;;;7.67;77.24;99279.22;5036234;28;20052;-88
2020/12/01 03:32:21;;;;;;;17.88;11.60;;;;;;;7.67;77.28;99274.81;5036288;28;20067;-89
2020/12/01 03:34:48;;;;;;;49.42;13.23;;;;;;;7.70;77.38;99286.88;5037051;28;20416;-88
2020/12/01 03:37:20;;;;;;;23.00;11.93;;;;;;;7.71;77.38;99287.75;5036492;28;20061;-87
2020/12/01 03:39:47;;;;;;;144.85;15.77;;;;;;;7.73;76.94;99288.53;5035950;28;20049;-88
2020/12/01 03:42:16;;;;;;;187.30;16.98;;;;;;;7.75;76.81;99284.91;5036117;28;20053;-88
2020/12/01 03:44:42;;;;;;;143.13;15.30;;;;;;;7.76;76.86;99291.81;5036223;28;20060;-88
2020/12/01 03:47:09;;;;;;;64.00;12.70;;;;;;;7.76;77.07;99289.22;5036180;28;20132;-89
2020/12/01 03:49:35;;;;;;;89.75;13.00;;;;;;;7.77;76.69;99284.78;5036011;28;20052;-88
2020/12/01 03:52:01;;;;;;;169.98;16.23;;;;;;;7.77;76.55;99282.16;5034582;28;20049;-88
2020/12/01 03:54:27;;;;;;;46.10;12.90;;;;;;;7.77;76.74;99283.03;5036588;28;20049;-87
2020/12/01 03:56:54;;;;;;;106.60;13.68;;;;;;;7.79;76.61;99289.06;5057562;28;20056;-87
2020/12/01 03:59:22;;;;;;;73.22;14.32;;;;;;;7.79;76.86;99286.44;5039705;28;20040;-87
2020/12/01 04:01:50;;;;;;;18.98;11.75;;;;;;;7.80;77.01;99289.88;5039620;28;20071;-88
2020/12/01 04:04:17;;;;;;;29.52;12.05;;;;;;;7.80;76.91;99282.88;5039891;28;20064;-87
2020/12/01 04:06:44;;;;;;;16.42;11.70;;;;;;;7.82;77.01;99277.56;5039769;28;20061;-87
2020/12/01 04:09:11;;;;;;;24.50;12.27;;;;;;;7.82;77.14;99280.19;5039643;28;20044;-87
2020/12/01 04:11:37;;;;;;;18.63;12.23;;;;;;;7.84;77.03;99280.09;5039559;28;20048;-87
2020/12/01 04:14:03;;;;;;;17.50;11.93;;;;;;;7.86;77.26;99279.09;5039658;28;20053;-87
2020/12/01 04:16:29;;;;;;;37.00;12.73;;;;;;;7.87;77.30;99280.78;5039856;28;20096;-87
2020/12/01 04:18:56;;;;;;;27.52;13.75;;;;;;;7.89;77.05;99276.28;5039754;28;20049;-87
2020/12/01 04:21:28;;;;;;;108.70;14.82;;;;;;;7.89;77.16;99275.44;5039298;28;20488;-88
2020/12/01 04:23:55;;;;;;;24.65;12.57;;;;;;;7.92;77.17;99278.75;5039758;28;20057;-87
2020/12/01 04:26:23;;;;;;;30.23;12.43;;;;;;;7.93;77.18;99280.44;5039985;28;20456;-88
2020/12/01 04:28:50;;;;;;;69.65;13.57;;;;;;;7.94;76.97;99282.16;5039453;28;20053;-88
2020/12/01 04:31:19;;;;;;;61.92;12.60;;;;;;;7.95;77.15;99288.22;5039106;28;20057;-87
2020/12/01 04:33:45;;;;;;;25.63;11.60;;;;;;;7.97;77.13;99285.50;5056775;28;20056;-87
2020/12/01 04:36:12;;;;;;;82.97;13.82;;;;;;;7.97;77.04;99282.91;5039403;28;20049;-88
2020/12/01 04:38:38;;;;;;;30.85;12.27;;;;;;;7.97;77.14;99283.75;5039497;28;20144;-87
2020/12/01 04:41:05;;;;;;;45.47;12.75;;;;;;;7.98;77.24;99287.19;5038976;28;20076;-88
2020/12/01 04:43:38;;;;;;;16.15;10.90;;;;;;;7.97;76.95;99285.50;5039062;28;20051;-88
2020/12/01 04:46:12;;;;;;;32.60;12.48;;;;;;;7.99;77.21;99286.28;5039348;28;20122;-87
2020/12/01 04:48:46;;;;;;;35.33;12.30;;;;;;;8.01;77.37;99292.28;5039007;28;20143;-87
2020/12/01 04:51:49;;;;;;;36.25;11.90;;;;;;;8.01;77.00;99287.03;5038987;28;20391;-88
2020/12/01 04:54:40;;;;;;;22.42;10.98;;;;;;;8.04;76.89;99286.88;5039535;28;20145;-87
2020/12/01 04:57:06;;;;;;;69.65;12.75;;;;;;;8.07;77.02;99287.56;5039804;28;20053;-87
2020/12/01 04:59:50;;;;;;;17.95;11.38;;;;;;;8.07;77.23;99286.69;5038371;28;20567;-87
2020/12/01 05:02:33;;;;;;;54.17;13.15;;;;;;;8.08;76.93;99293.66;5039378;28;20067;-87
2020/12/01 05:05:40;;;;;;;18.55;11.30;;;;;;;8.05;76.75;99288.56;5056405;28;20053;-87
2020/12/01 05:08:25;;;;;;;22.48;11.95;;;;;;;8.06;76.51;99291.13;5039182;28;20053;-87
2020/12/01 05:10:52;;;;;;;43.70;13.93;;;;;;;8.10;76.90;99296.19;5056580;28;20048;-87
2020/12/01 05:13:26;;;;;;;21.55;13.98;;;;;;;8.06;76.57;99295.50;5055996;28;20049;-87
2020/12/01 05:16:00;;;;;;;17.30;10.98;;;;;;;8.05;76.86;99299.06;5039376;28;20049;-87
2020/12/01 05:18:30;;;;;;;19.75;12.90;;;;;;;8.05;76.87;99305.16;5056284;28;20057;-87
2020/12/01 05:21:05;;;;;;;18.30;11.48;;;;;;;8.05;76.71;99309.53;5038621;28;20066;-87
2020/12/01 05:23:42;;;;;;;19.25;12.43;;;;;;;8.04;76.74;99313.09;5038205;28;20063;-87
2020/12/01 05:26:11;;;;;;;20.20;12.13;;;;;;;8.07;76.71;99312.91;5056723;28;20059;-86
2020/12/01 05:28:48;;;;;;;19.88;12.18;;;;;;;8.04;76.77;99307.84;5037726;28;20497;-86
2020/12/01 05:31:17;;;;;;;18.60;11.32;;;;;;;8.07;76.96;99310.28;5038095;28;20478;-87
2020/12/01 05:33:43;;;;;;;23.05;10.93;;;;;;;8.08;77.03;99314.63;5038199;28;20056;-87
2020/12/01 05:36:30;;;;;;;25.25;11.48;;;;;;;8.04;76.82;99310.47;5037716;28;20102;-87
2020/12/01 05:39:07;;;;;;;24.15;13.20;;;;;;;8.07;76.90;99320.78;5037817;28;20052;-87
2020/12/01 05:41:37;;;;;;;21.98;14.00;;;;;;;8.11;77.10;99324.09;5038024;28;20053;-87
2020/12/01 05:44:14;;;;;;;19.30;11.27;;;;;;;8.11;77.29;99324.94;5037874;28;20060;-85
2020/12/01 05:46:45;;;;;;;20.98;13.15;;;;;;;8.12;76.88;99321.41;5055646;28;20448;-89
2020/12/01 05:49:28;;;;;;;24.85;12.65;;;;;;;8.10;76.91;99325.88;5055667;28;20064;-86
2020/12/01 05:52:02;;;;;;;22.40;13.15;;;;;;;8.13;76.73;99328.31;5055515;28;20059;-88
2020/12/01 05:54:35;;;;;;;20.48;12.88;;;;;;;8.14;76.92;99331.78;5038272;28;20478;-88
2020/12/01 05:57:02;;;;;;;16.85;10.23;;;;;;;8.17;77.01;99332.47;5054954;28;20565;-86
2020/12/01 05:59:28;;;;;;;16.83;11.93;;;;;;;8.16;76.93;99329.94;5037367;28;20049;-85
2020/12/01 06:02:01;;;;;;;24.50;13.25;;;;;;;8.15;77.04;99336.94;5037472;28;20079;-87
2020/12/01 06:04:32;;;;;;;26.25;12.98;;;;;;;8.17;76.81;99332.47;5038105;28;20133;-85
2020/12/01 06:07:04;;;;;;;26.52;13.40;;;;;;;8.16;77.30;99343.03;5037350;28;20049;-85
2020/12/01 06:09:52;;;;;;;32.97;14.48;;;;;;;8.15;76.88;99333.50;5037051;28;20481;-86
2020/12/01 06:12:31;;;;;;;18.90;12.80;;;;;;;8.18;76.54;99343.78;5036851;28;20504;-86
2020/12/01 06:15:00;;;;;;;34.17;16.52;;;;;;;8.19;76.91;99343.72;5054906;28;20516;-86
2020/12/01 06:17:40;;;;;;;66.55;15.73;;;;;;;8.16;76.81;99338.66;5037247;28;20048;-85
2020/12/01 06:20:19;;;;;;;30.45;11.88;;;;;;;8.16;76.48;99341.28;5037014;28;20052;-86
2020/12/01 06:23:20;;;;;;;24.77;13.98;;;;;;;8.16;76.87;99348.28;5036687;28;20049;-86
2020/12/01 06:26:20;;;;;;;24.15;13.52;;;;;;;8.15;76.68;99342.19;5032098;28;20049;-88
2020/12/01 06:29:09;;;;;;;26.15;13.93;;;;;;;8.15;76.84;99339.56;5036941;28;20508;-86
2020/12/01 06:32:02;;;;;;;23.40;14.15;;;;;;;8.15;76.91;99344.81;5036537;28;20048;-86
2020/12/01 06:35:02;;;;;;;21.92;12.38;;;;;;;8.15;76.66;99351.84;5032367;28;20059;-86
2020/12/01 06:37:32;;;;;;;24.35;9.52;;;;;;;8.18;77.12;99357.75;5036611;28;20049;-87
2020/12/01 06:40:13;;;;;;;16.33;9.13;;;;;;;8.17;77.16;99361.31;5036510;28;20044;-86
2020/12/01 06:42:59;;;;;;;20.35;8.70;;;;;;;8.16;77.38;99357.00;5036072;28;20494;-86
2020/12/01 08:57:38;;;;;;;10.50;5.78;;;;;;;8.84;78.14;99473.22;5053732;28;20120;-86
2020/12/01 09:00:23;;;;;;;10.50;5.25;;;;;;;8.90;78.16;99482.50;5056686;28;20048;-87
2020/12/01 09:02:50;;;;;;;4.97;4.05;;;;;;;8.95;77.88;99477.88;5038822;28;20049;-87
2020/12/01 10:07:41;;;;;;;5.93;4.32;;;;;;;9.51;77.69;99521.22;5035058;28;20513;-88
2020/12/01 17:18:27;;;;;;;9.43;5.90;;;;;;;8.50;76.10;99977.81;5016288;28;20061;-93
2020/12/01 17:25:03;;;;;;;;;;;;;;;8.50;76.23;99990.94;5012688;28;20108;-89
2020/12/01 17:27:38;;;;;;;7.10;4.97;;;;;;;8.47;76.44;99998.03;5018384;28;20358;-93
2020/12/01 17:30:37;;;;;;;6.93;5.30;;;;;;;8.43;76.47;100001.72;5018814;28;20045;-89
2020/12/01 17:33:35;;;;;;;8.57;5.68;;;;;;;8.42;76.25;99994.78;4996457;28;20050;-89
2020/12/01 17:36:18;;;;;;;20.25;6.22;;;;;;;8.42;76.27;100005.28;5015807;28;20469;-90
2020/12/01 17:39:21;;;;;;;10.77;5.88;;;;;;;8.40;76.30;100004.47;5018428;28;20133;-89
2020/12/01 17:42:38;;;;;;;;;;;;;;;;;;;;;
2020/12/01 17:45:35;;;;;;;6.80;5.32;;;;;;;8.41;76.28;100021.91;5020472;28;20092;-93
2020/12/01 17:48:37;;;;;;;8.95;5.40;;;;;;;8.40;76.31;100022.84;5015309;28;20141;-91
2020/12/01 17:51:38;;;;;;;7.25;4.97;;;;;;;8.37;76.14;100020.34;5018546;28;20050;-90
2020/12/01 17:54:40;;;;;;;6.38;5.07;;;;;;;8.36;76.13;100023.88;5015998;28;20137;-90
2020/12/01 17:57:40;;;;;;;;;;;;;;;;;;;;;
2020/12/01 18:00:35;;;;;;;8.10;4.55;;;;;;;8.35;76.65;100037.94;5016445;28;20045;-89
2020/12/01 18:03:19;;;;;;;9.05;5.07;;;;;;;8.33;76.40;100047.63;5018902;28;20058;-91
2020/12/01 18:05:54;;;;;;;7.40;5.10;;;;;;;8.33;76.41;100043.22;5017676;28;20058;-92
2020/12/01 18:08:33;;;;;;;6.88;4.68;;;;;;;8.31;76.11;100042.47;5017290;28;20568;-90
2020/12/01 18:11:08;;;;;;;7.28;4.35;;;;;;;8.33;76.58;100043.22;5015328;28;20505;-89
2020/12/01 18:17:45;;;;;;;4.55;3.75;;;;;;;8.30;75.91;100058.25;4997034;28;20054;-89
2020/12/01 18:21:13;;;;;;;5.95;4.13;;;;;;;8.29;76.03;100061.78;4991267;28;20522;-89
2020/12/01 18:23:53;;;;;;;6.35;3.75;;;;;;;8.28;76.22;100066.19;5016242;28;20066;-91
2020/12/01 18:26:50;;;;;;;5.63;3.85;;;;;;;8.23;76.09;100077.78;5017999;28;20561;-93
2020/12/01 18:29:43;;;;;;;7.90;3.85;;;;;;;8.19;76.16;100088.41;5015677;28;20057;-91
2020/12/01 18:32:56;;;;;;;5.38;3.78;;;;;;;8.17;76.15;100098.13;5016072;28;20064;-91
2020/12/01 18:35:49;;;;;;;5.68;4.20;;;;;;;8.20;76.18;100097.13;5016567;28;20048;-89
2020/12/01 18:38:33;;;;;;;7.68;4.20;;;;;;;8.15;76.25;100099.94;5017865;28;20049;-91
2020/12/01 18:41:07;;;;;;;12.82;3.90;;;;;;;8.15;76.08;100099.09;5017376;28;20054;-90
2020/12/01 18:43:50;;;;;;;26.10;4.50;;;;;;;8.12;76.27;100105.31;5015894;28;20049;-89
2020/12/01 18:46:23;;;;;;;68.28;6.13;;;;;;;8.13;76.59;100112.25;5016772;28;20058;-89
2020/12/01 18:49:25;;;;;;;;;;;;;;;;;;;;;
2020/12/01 18:52:49;;;;;;;61.72;5.97;;;;;;;8.10;76.07;100125.50;5013786;28;20054;-93
2020/12/01 18:55:24;;;;;;;84.57;7.80;;;;;;;8.12;76.07;100130.69;5017979;28;20050;-90
2020/12/01 19:02:20;;;;;;;68.40;6.28;;;;;;;8.11;76.68;100139.47;4957900;29;20644;-91
2020/12/01 19:05:12;;;;;;;91.25;7.47;;;;;;;8.10;76.53;100140.38;4960059;28;20055;-89
2020/12/01 19:15:47;;;;;;;46.55;5.57;;;;;;;8.11;76.38;100149.94;4962704;28;20050;-90
2020/12/01 19:18:55;;;;;;;116.88;8.13;;;;;;;8.08;76.28;100148.31;5017720;28;20058;-90
2020/12/01 19:21:50;;;;;;;42.47;6.18;;;;;;;8.10;76.53;100154.34;5016119;28;20050;-90
2020/12/01 19:24:49;;;;;;;28.98;6.40;;;;;;;8.10;76.20;100156.97;4962425;28;20169;-93
2020/12/01 19:27:35;;;;;;;20.60;5.43;;;;;;;8.06;76.08;100148.38;5017588;28;20061;-90
2020/12/01 19:30:17;;;;;;;58.33;6.97;;;;;;;8.11;76.55;100153.41;5014498;28;20054;-93
2020/12/01 19:32:47;;;;;;;9.77;6.05;;;;;;;8.07;76.28;100157.06;5015714;28;20140;-90
2020/12/01 19:35:17;;;;;;;10.98;5.72;;;;;;;8.08;76.55;100161.41;5015507;28;20054;-93
2020/12/01 19:37:47;;;;;;;7.07;4.78;;;;;;;8.05;76.23;100170.28;5015136;28;20096;-92
2020/12/01 19:40:15;;;;;;;7.18;4.82;;;;;;;8.05;76.58;100166.78;5017370;28;20076;-90
2020/12/01 19:42:41;;;;;;;8.23;4.97;;;;;;;8.04;76.45;100172.94;5019230;28;20109;-93
2020/12/01 19:45:08;;;;;;;7.80;4.75;;;;;;;8.01;76.47;100173.06;5014971;28;20129;-90
2020/12/01 19:47:37;;;;;;;7.45;4.78;;;;;;;7.99;76.46;100165.25;5019081;28;20554;-92
2020/12/01 19:50:05;;;;;;;9.93;5.95;;;;;;;7.97;76.29;100172.34;5015139;28;20058;-91
2020/12/01 19:52:38;;;;;;;7.90;5.47;;;;;;;7.94;76.20;100180.31;5014408;28;20112;-91
2020/12/01 19:55:08;;;;;;;8.63;5.60;;;;;;;7.95;76.51;100182.88;5019892;28;20141;-91
2020/12/01 19:57:35;;;;;;;7.68;5.25;;;;;;;7.97;76.49;100190.69;5023549;28;20133;-93
2020/12/01 20:00:05;;;;;;;12.88;6.50;;;;;;;7.94;76.42;100186.41;5015086;28;20129;-89
2020/12/01 20:02:31;;;;;;;14.40;7.38;;;;;;;7.96;76.68;100188.94;5016607;28;20144;-92
2020/12/01 20:05:01;;;;;;;20.52;6.88;;;;;;;7.96;76.52;100196.81;5021554;28;20140;-94
2020/12/01 20:07:30;;;;;;;8.65;5.90;;;;;;;7.95;76.40;100192.50;5016596;28;20100;-93
2020/12/01 20:09:56;;;;;;;12.85;6.55;;;;;;;7.95;76.37;100190.75;5018045;28;20586;-90
2020/12/01 20:12:23;;;;;;;29.10;6.43;;;;;;;7.97;76.17;100189.81;5014305;28;20058;-90
2020/12/01 20:14:49;;;;;;;55.22;7.20;;;;;;;7.96;76.62;100196.81;5015165;28;20606;-90
2020/12/01 20:17:18;;;;;;;15.88;7.10;;;;;;;7.95;76.50;100198.59;5014237;28;20053;-90
2020/12/01 20:19:45;;;;;;;8.73;5.40;;;;;;;7.94;76.27;100196.91;5015409;28;20049;-91
2020/12/01 20:22:14;;;;;;;10.68;5.60;;;;;;;7.93;76.21;100205.66;5015233;28;20050;-90
2020/12/01 20:24:52;;;;;;;6.60;5.18;;;;;;;7.91;75.96;100204.00;5016093;28;20573;-92
2020/12/01 20:27:34;;;;;;;10.05;5.03;;;;;;;7.85;75.86;100218.19;5016376;28;20056;-90
2020/12/01 20:30:08;;;;;;;7.93;4.68;;;;;;;7.87;76.19;100218.16;5015400;28;20054;-90
2020/12/01 20:32:40;;;;;;;8.02;5.03;;;;;;;7.84;76.07;100216.50;5015838;28;20056;-93
2020/12/01 20:35:33;;;;;;;8.15;4.85;;;;;;;7.81;76.08;100212.25;5016228;28;20136;-93
2020/12/01 20:38:07;;;;;;;7.40;4.75;;;;;;;7.79;75.91;100215.84;5018038;28;20058;-89
2020/12/01 20:40:37;;;;;;;6.75;4.53;;;;;;;7.78;76.28;100225.44;5019600;28;20073;-90
2020/12/01 20:43:11;;;;;;;7.72;4.47;;;;;;;7.75;76.12;100214.22;5019529;28;20057;-91
2020/12/01 20:45:38;;;;;;;6.82;4.60;;;;;;;7.75;76.33;100215.09;5022265;28;20148;-92
2020/12/01 20:48:06;;;;;;;6.95;4.93;;;;;;;7.73;76.52;100216.91;5020445;28;20110;-90
2020/12/01 20:50:32;;;;;;;5.97;4.95;;;;;;;7.73;76.45;100222.16;5018913;28;20073;-88
2020/12/01 20:52:59;;;;;;;6.38;4.40;;;;;;;7.73;76.04;100221.31;5019669;28;20109;-88
2020/12/01 20:55:25;;;;;;;7.57;5.35;;;;;;;7.72;76.13;100215.22;5019055;28;20406;-89
2020/12/01 20:57:52;;;;;;;7.75;5.60;;;;;;;7.70;76.30;100219.63;5017529;28;20046;-92
2020/12/01 21:00:21;;;;;;;8.23;5.63;;;;;;;7.72;76.31;100222.22;5017498;28;20072;-88
2020/12/01 21:02:47;;;;;;;7.75;5.82;;;;;;;7.71;76.31;100225.75;5018351;28;20056;-88
2020/12/01 21:05:21;;;;;;;10.18;6.05;;;;;;;7.73;76.76;100239.66;5017135;28;20080;-92
2020/12/01 21:07:49;;;;;;;10.55;6.80;;;;;;;7.71;76.77;100234.47;5021894;28;20105;-92
2020/12/01 21:10:19;;;;;;;10.18;5.93;;;;;;;7.71;76.33;100238.84;5017503;28;20074;-88
2020/12/01 21:12:55;;;;;;;9.63;6.05;;;;;;;7.70;76.22;100235.34;5019192;28;20049;-91
2020/12/01 21:15:22;;;;;;;8.60;5.82;;;;;;;7.72;76.37;100244.03;5019938;28;20045;-92
2020/12/01 21:18:03;;;;;;;12.93;6.10;;;;;;;7.69;76.15;100246.75;5019196;28;20118;-89
2020/12/01 21:20:31;;;;;;;12.23;7.00;;;;;;;7.72;76.59;100251.03;5001279;28;20049;-89
2020/12/01 21:23:00;;;;;;;14.88;6.32;;;;;;;7.71;76.28;100251.94;5017249;28;20058;-91
2020/12/01 21:25:29;;;;;;;11.93;6.60;;;;;;;7.72;76.47;100256.28;5018899;28;20084;-91
2020/12/01 21:28:04;;;;;;;9.45;5.82;;;;;;;7.71;75.87;100258.06;5018425;28;20106;-89
2020/12/01 21:30:31;;;;;;;8.38;5.82;;;;;;;7.72;76.41;100261.50;5019122;28;20469;-89
2020/12/01 21:33:05;;;;;;;15.40;6.47;;;;;;;7.68;76.31;100259.03;5020770;28;20089;-91
2020/12/01 21:35:31;;;;;;;13.98;6.90;;;;;;;7.70;76.79;100261.56;5018622;28;20077;-91
2020/12/01 21:37:57;;;;;;;8.10;5.32;;;;;;;7.70;76.33;100256.31;5018361;28;20419;-89
2020/12/01 21:40:26;;;;;;;19.48;6.05;;;;;;;7.69;76.39;100259.88;5017407;28;20507;-89
2020/12/01 21:43:13;;;;;;;13.65;6.22;;;;;;;7.66;75.94;100259.97;5015656;28;20100;-89
2020/12/01 21:45:42;;;;;;;17.23;6.88;;;;;;;7.70;76.22;100264.19;5016339;28;20049;-89
2020/12/01 21:48:11;;;;;;;16.92;5.97;;;;;;;7.69;76.44;100262.47;5017478;28;20410;-89
2020/12/01 21:50:38;;;;;;;25.40;7.22;;;;;;;7.71;76.70;100254.56;5016404;28;20056;-88
2020/12/01 21:53:29;;;;;;;22.45;7.95;;;;;;;7.68;76.04;100263.41;5016678;28;20058;-89
2020/12/01 21:56:28;;;;;;;23.92;7.53;;;;;;;7.69;76.15;100259.88;5018507;28;20141;-90
2020/12/01 21:59:04;;;;;;;23.92;7.47;;;;;;;7.71;75.73;100267.66;5016597;28;20080;-92
2020/12/01 22:01:33;;;;;;;28.15;7.45;;;;;;;7.73;76.51;100261.47;5016395;28;20038;-90
2020/12/01 22:05:04;;;;;;;16.48;7.25;;;;;;;7.68;75.88;100266.03;5016048;28;20060;-89
2020/12/01 22:07:45;;;;;;;21.73;8.23;;;;;;;7.68;76.00;100266.88;5015166;28;20049;-89
2020/12/01 22:10:40;;;;;;;69.30;9.32;;;;;;;7.68;76.17;100264.25;5014939;28;20064;-89
2020/12/01 22:13:13;;;;;;;116.47;9.70;;;;;;;7.73;76.14;100268.50;5017938;28;20089;-89
2020/12/01 22:15:53;;;;;;;;;;;;;;;7.73;75.69;100265.88;5018904;28;20100;-93
2020/12/01 22:18:28;;;;;;;19.00;7.40;;;;;;;7.72;75.73;100269.38;5019694;28;19971;-90
2020/12/01 22:21:01;;;;;;;15.05;7.45;;;;;;;7.69;75.83;100267.72;5020191;28;20094;-94
2020/12/01 22:23:48;;;;;;;15.07;8.32;;;;;;;7.65;75.74;100269.63;5016982;28;20128;-93
2020/12/01 22:26:27;;;;;;;15.73;7.80;;;;;;;7.64;76.08;100270.53;5018257;28;20046;-89
2020/12/01 22:29:09;;;;;;;17.00;8.00;;;;;;;7.63;76.10;100275.81;5018895;28;20192;-89
2020/12/01 22:31:56;;;;;;;13.75;7.07;;;;;;;7.65;76.29;100276.59;5015650;28;20128;-93
2020/12/01 22:34:54;;;;;;;11.65;7.20;;;;;;;7.63;75.97;100281.91;5017678;28;20049;-90
2020/12/01 22:37:27;;;;;;;15.02;8.18;;;;;;;7.64;75.94;100278.38;5018874;28;20091;-90
2020/12/01 22:39:54;;;;;;;17.35;8.50;;;;;;;7.65;76.45;100282.72;5015441;28;20045;-91
2020/12/01 22:42:25;;;;;;;11.25;6.70;;;;;;;7.64;76.37;100286.25;5015753;28;20100;-89
2020/12/01 22:45:08;;;;;;;19.27;8.13;;;;;;;7.65;75.83;100292.31;5017856;28;20050;-92
2020/12/01 22:47:40;;;;;;;12.70;7.43;;;;;;;7.65;75.59;100298.44;5017149;28;20133;-89
2020/12/01 22:50:34;;;;;;;26.15;7.88;;;;;;;7.63;75.66;100299.41;5015461;28;20416;-89
2020/12/01 22:53:24;;;;;;;19.42;7.45;;;;;;;7.62;75.61;100298.53;5016343;28;20050;-88
2020/12/01 22:56:19;;;;;;;15.98;7.90;;;;;;;7.61;75.75;100301.22;5015778;28;20050;-89
2020/12/01 22:58:46;;;;;;;27.10;9.10;;;;;;;7.64;75.96;100299.34;5007006;28;20053;-89
2020/12/01 23:01:18;;;;;;;17.52;8.75;;;;;;;7.61;76.34;100288.97;5015106;28;20172;-89
2020/12/01 23:03:48;;;;;;;20.27;8.93;;;;;;;7.63;76.42;100294.16;5017774;28;20061;-89
2020/12/01 23:06:27;;;;;;;16.00;7.63;;;;;;;7.61;75.60;100301.22;5016167;28;20060;-93
2020/12/01 23:08:59;;;;;;;19.90;7.22;;;;;;;7.62;75.87;100293.28;5019150;28;20113;-94
2020/12/01 23:11:37;;;;;;;15.88;6.68;;;;;;;7.62;75.80;100298.53;5015286;28;20041;-89
2020/12/01 23:14:13;;;;;;;11.75;7.40;;;;;;;7.62;76.06;100305.56;5046086;22;20042;-91
2020/12/01 23:16:44;;;;;;;15.55;7.57;;;;;;;7.63;76.36;100305.47;4994108;28;20058;-91
2020/12/01 23:19:13;;;;;;;12.32;7.40;;;;;;;7.62;76.10;100306.41;4994528;28;20065;-90
2020/12/01 23:21:45;;;;;;;13.63;8.38;;;;;;;7.61;76.02;100309.94;4994984;28;20058;-90
2020/12/01 23:24:12;;;;;;;15.68;8.98;;;;;;;7.63;76.33;100308.09;4993426;28;20065;-90
2020/12/01 23:27:03;;;;;;;12.73;7.93;;;;;;;7.60;75.73;100305.59;4993337;28;20054;-90
2020/12/01 23:29:41;;;;;;;14.95;8.50;;;;;;;7.62;75.85;100306.41;4994808;28;20411;-90
2020/12/01 23:32:09;;;;;;;11.48;7.90;;;;;;;7.63;75.92;100302.84;4993553;28;20046;-91
2020/12/01 23:34:37;;;;;;;12.18;8.07;;;;;;;7.63;76.07;100305.47;4994160;28;20525;-90
2020/12/01 23:37:03;;;;;;;16.00;9.20;;;;;;;7.64;76.41;100301.09;4993448;28;20063;-90
2020/12/01 23:39:29;;;;;;;14.82;8.85;;;;;;;7.63;76.20;100305.47;4993196;28;20501;-90
2020/12/01 23:42:04;;;;;;;15.52;8.82;;;;;;;7.63;75.63;100304.66;4994569;28;20403;-90